Manns Choice, PA (15550)

10:51 PM EDT on September 14, 2014 (GMT -0400)
E South Street, along Juniata River | Change Station
CLOSE
Current Station
Personal Weather Station
Location: Everett, PA
Elevation: 1015 ft
Nearby Weather Stations

Elev 1015 ft 40.01 °N, 78.37 °W | Updated 7 minutes ago

Partly Cloudy
Partly Cloudy
48.0 °F
Feels Like 48 °F
N
0.0
Wind Variable Wind from NNE

Today
High -- | Low -- °F
--% Chance of Precip.
Yesterday
High -- | Low -- °F
Precip. -- in
6:54 AM 7:24 PM
Waning Gibbous, 60% visible
Pressure 30.27 in
Visibility 10.0 miles
Clouds Scattered Clouds 4400 ft
Scattered Clouds 5000 ft
Windchill 48 °F
Dew Point 47 °F
Humidity 97%
Rainfall 0.00 in
Snow Depth Not available.
UV 0 out of 12
Pollen 3.80 out of 12
Air Quality Not available.
Flu Activity Not available.
METAR KCBE 150246Z AUTO 02003KT 10SM SCT044 SCT050 12/09 A3027 RMK AO1

More Conditions Fewer Conditions

Pressure 30.27 in
Visibility 10.0 miles
Clouds Scattered Clouds 4400 ft
Scattered Clouds 5000 ft
Windchill 48 °F
Dew Point 47 °F
Humidity 97%
Rainfall 0.00 in
Snow Depth Not available.
UV 0 out of 12
Pollen 3.80 out of 12
Air Quality Not available.
Flu Activity Not available.
METAR KCBE 150246Z AUTO 02003KT 10SM SCT044 SCT050 12/09 A3027 RMK AO1

More Conditions Fewer Conditions

10-Day Weather Forecast

Almanac

Astronomy

Sep. 14, 2014 Rise Set
Actual Time 6:54 AM EDT 7:24 PM EDT
Civil Twilight 6:27 AM EDT 7:52 PM EDT
Nautical Twilight 5:55 AM EDT 8:24 PM EDT
Astronomical Twilight 5:22 AM EDT 8:56 PM EDT
Moon 11:16 PM EDT (9/14) 12:58 PM EDT (9/14)
Length of Visible Light 13h 24m
Length of Day
12h 30m
Tomorrow will be 2m 35s shorter.
Waning Gibbous, 60% of the Moon is Illuminated
Today
Waning Gibbous
Sep 15
Last Quarter
Sep 24
New
Oct 1
First Quarter
Oct 8
Full

Today's Extremes

State Highs State Lows

Community

WunderPhotos

Upload Photos

1,753,385 photos uploaded!

Nearby

Snow Depth

Station Depth Elevation
No new snow has been reported.

Earthquake Activity

City Distance Mag. Time & Date
No recent earthquake activity has been reported nearby.
Minimum magnitude displayed is 2.5.

Coastal Water Temperatures

Place Temperature
No Stations Reporting

Nearby Weather Stations